메인 페이지
METAR-TAF:

METAR-TAF

공항 :

캠프 험프리스

평택, 대한민국

위도: 36-56N, 경도: 127-00E, 고도: 16m

현재 날씨관측

예보는 1 시간 22분 전, 13:56시(UTC)에 발표되었습니다.
동남동6kt
온도 30°C
습도 75%
기압 1005 hPa
시정: 11.3km
고도 7500ft 상공 구름 조금

METAR: RKSG 151356Z 11006KT 7SM FEW075 30/25 A2969 RMK AO2A SLP056 T02980251 $

시각: 00:18 (15:18 UTC)

예보

예보는 3 시간 18분 전, 12:00시(UTC)에 발표되었습니다.
예보 대상 시간: 15일 12시부터 16일 18시까지 (UTC)
여러 방향의 바람 6kt
시정 10km 이상
고도 8000ft 상공 구름 보통
고도 20000ft 상공 구름 많음
일시적
15일 12시부터 15일 13시까지 (UTC)
고도 2000ft 상공 구름 많음, 적란운.
시계 내 뇌우
전환 중
15일 13시부터 15일 14시까지 (UTC)
여러 방향의 바람 6kt
시정 10km 이상
고도 5000ft 상공 구름 조금
고도 20000ft 상공 구름 보통
전환 중
16일 03시부터 16일 04시까지 (UTC)
12kt, 순간 최대 풍속 18kt
시정 10km 이상
고도 4000ft 상공 구름 많음

TAF: RKSG 151200Z 1512/1618 VRB06KT 9999 SCT080 BKN200 QNH2962INS TEMPO 1512/1513 VCTS BKN020CB BECMG 1513/1514 VRB06KT 9999 FEW050 SCT200 QNH2963INS BECMG 1603/1604 08012G18KT 9999 BKN040 QNH2966INS TX34/1606Z TN27/1520Z

4,000개 이상의 공항 관측 자료 및 예보 (METAR 및 TAF 보고).

지도상에서 검색 가능한 기상관측소가 노란 점과 빨간 점으로 표시되어 있습니다.

기상관측소 명을 보려면 표시 위로 마우스를 이동하세요.

날씨 관측과 예보를 보려면 클릭하세요.

지도 변경 : 확대하려면 엑스 표시가 있는 녹색 버튼, 축소하려면 빼기 표시가 있는 녹색 버튼, 다음 페이지의 지도를 보려면 녹색 화살표를 클릭하세요.


METAR-TAF: